Time;durP1;ratioP1;P1;durP2;ratioP2;P2;SDS_P1;SDS_P2;PMS_P1;PMS_P2;Temp;Humidity;BMP_temperature;BMP_pressure;BME280_temperature;BME280_humidity;BME280_pressure;Samples;Min_cycle;Max_cycle;Signal;HPM_P1;HPM_P2
2021/10/27 00:02:32;;;;;;;59.70;24.10;;;;;;;6.80;77.89;102651.84;1840620;78;21729;-84
2021/10/27 00:05:06;;;;;;;49.67;20.87;;;;;;;6.75;77.88;102641.88;1833375;78;21364;-81
2021/10/27 00:07:39;;;;;;;41.53;19.37;;;;;;;6.70;77.97;102640.20;1832473;78;21337;-83
2021/10/27 00:10:13;;;;;;;49.53;20.62;;;;;;;6.67;78.10;102644.72;1810305;77;21197;-81
2021/10/27 00:12:48;;;;;;;44.33;19.40;;;;;;;6.69;78.15;102641.75;1823626;78;21296;-83
2021/10/27 00:15:22;;;;;;;38.38;18.00;;;;;;;6.71;78.30;102638.30;1814369;78;21177;-78
2021/10/27 00:17:55;;;;;;;45.60;19.82;;;;;;;6.72;78.34;102635.88;1875555;76;21320;-80
2021/10/27 00:20:27;;;;;;;45.30;17.57;;;;;;;6.72;78.34;102636.71;1875752;76;21808;-75
2021/10/27 00:23:00;;;;;;;52.48;21.77;;;;;;;6.73;78.28;102633.44;1875415;76;21291;-76
2021/10/27 00:25:33;;;;;;;63.10;26.20;;;;;;;6.71;78.39;102629.48;1875432;76;21149;-79
2021/10/27 00:28:06;;;;;;;80.07;33.30;;;;;;;6.70;78.51;102626.91;1828873;78;21854;-76
2021/10/27 00:30:40;;;;;;;91.10;41.13;;;;;;;6.69;78.57;102623.81;1828843;78;21704;-76
2021/10/27 00:33:12;;;;;;;115.70;49.45;;;;;;;6.63;78.63;102633.72;1828968;78;21265;-76
2021/10/27 00:35:45;;;;;;;117.90;48.45;;;;;;;6.59;78.69;102626.00;1828811;78;21328;-77
2021/10/27 00:38:18;;;;;;;135.80;55.17;;;;;;;6.53;78.92;102628.97;1828668;78;21179;-76
2021/10/27 00:40:52;;;;;;;;;;;;;;;6.54;79.24;102618.80;1828441;78;21639;-75
2021/10/27 00:43:25;;;;;;;134.63;55.98;;;;;;;6.54;79.46;102617.42;1832689;77;20285;-76
2021/10/27 00:45:57;;;;;;;131.97;57.88;;;;;;;6.50;79.61;102618.32;1876433;75;21204;-77
2021/10/27 00:48:30;;;;;;;134.63;55.65;;;;;;;6.48;79.84;102619.01;1828786;77;21265;-75
2021/10/27 00:51:02;;;;;;;115.90;49.08;;;;;;;6.49;80.07;102617.13;1875345;76;21148;-77
2021/10/27 00:53:36;;;;;;;118.62;49.93;;;;;;;6.52;80.20;102611.21;1828607;77;21367;-76
2021/10/27 00:56:09;;;;;;;113.62;50.48;;;;;;;6.58;80.48;102611.84;1875449;76;21162;-77
2021/10/27 00:58:42;;;;;;;116.53;49.45;;;;;;;6.67;80.79;102611.61;1828994;77;21155;-77
2021/10/27 01:01:15;;;;;;;101.82;43.30;;;;;;;6.82;80.89;102611.59;1876086;75;21281;-76
2021/10/27 01:03:49;;;;;;;90.57;41.70;;;;;;;6.87;80.76;102607.24;1828185;77;21349;-74
2021/10/27 01:06:22;;;;;;;94.22;39.03;;;;;;;6.92;80.86;102610.81;1805215;79;21299;-76
2021/10/27 01:08:54;;;;;;;90.15;38.58;;;;;;;7.00;81.01;102601.05;1828361;78;21305;-76
2021/10/27 01:11:27;;;;;;;92.08;39.18;;;;;;;7.10;81.04;102607.16;1805183;79;21320;-77
2021/10/27 01:14:00;;;;;;;78.75;37.03;;;;;;;7.13;81.11;102596.58;1828260;77;21321;-78
2021/10/27 01:16:33;;;;;;;84.30;38.17;;;;;;;7.18;81.18;102592.72;1805601;79;21158;-75
2021/10/27 01:19:07;;;;;;;92.20;37.28;;;;;;;7.22;81.19;102597.34;1824257;78;21739;-76
2021/10/27 01:21:41;;;;;;;72.30;34.00;;;;;;;7.23;81.20;102600.42;1831886;77;21363;-75
2021/10/27 01:24:16;;;;;;;78.07;33.70;;;;;;;7.29;81.39;102599.14;1785541;79;21335;-76
2021/10/27 01:26:49;;;;;;;90.25;37.15;;;;;;;7.35;81.53;102595.07;1778155;79;21672;-75
2021/10/27 01:29:22;;;;;;;77.30;33.45;;;;;;;7.42;81.72;102598.77;1856288;76;21354;-76
2021/10/27 01:31:55;;;;;;;79.43;32.97;;;;;;;7.48;81.78;102596.62;1875051;76;21287;-76
2021/10/27 01:34:27;;;;;;;77.17;31.75;;;;;;;7.51;81.97;102593.48;1874881;75;21500;-77
2021/10/27 01:37:00;;;;;;;52.53;21.35;;;;;;;7.56;82.08;102588.23;1837963;76;21145;-77
2021/10/27 01:39:33;;;;;;;;;;;;;;;7.62;82.33;102586.08;1833707;76;21146;-76
2021/10/27 01:42:05;;;;;;;60.17;27.20;;;;;;;7.79;83.38;102583.92;1874770;75;20322;-81
2021/10/27 01:44:38;;;;;;;65.62;26.85;;;;;;;7.86;83.38;102583.46;1856107;76;21277;-79
2021/10/27 01:47:10;;;;;;;59.40;25.30;;;;;;;7.93;83.15;102580.23;1852269;77;21279;-81
2021/10/27 01:49:43;;;;;;;61.18;25.62;;;;;;;8.08;84.15;102578.28;1852189;77;21338;-78
2021/10/27 01:52:17;;;;;;;61.07;25.93;;;;;;;8.24;84.63;102580.79;1824854;77;21366;-77
2021/10/27 01:54:50;;;;;;;38.50;16.27;;;;;;;8.38;84.24;102582.09;1838599;75;21288;-77
2021/10/27 01:57:22;;;;;;;41.65;18.45;;;;;;;8.52;84.61;102581.69;1910523;75;21350;-76
2021/10/27 01:59:55;;;;;;;42.80;17.50;;;;;;;8.65;84.21;102579.89;1881513;75;21287;-75
2021/10/27 02:02:27;;;;;;;48.42;21.00;;;;;;;8.75;83.86;102583.14;1877381;76;21357;-75
2021/10/27 02:05:00;;;;;;;10.93;6.47;;;;;;;8.82;83.67;102588.19;1853202;76;21307;-75
2021/10/27 02:07:33;;;;;;;10.68;6.03;;;;;;;8.97;84.51;102589.47;1878543;76;21745;-74
2021/10/27 02:10:07;;;;;;;41.77;15.30;;;;;;;9.14;84.50;102586.18;1878401;75;21275;-74
2021/10/27 02:12:41;;;;;;;24.43;11.97;;;;;;;9.26;84.23;102585.93;1888573;75;21164;-75
2021/10/27 02:15:14;;;;;;;8.90;4.95;;;;;;;9.34;83.92;102581.59;1903691;75;21287;-78
2021/10/27 02:17:46;;;;;;;19.98;5.58;;;;;;;9.48;84.46;102584.73;1910634;75;21275;-78
2021/10/27 02:20:19;;;;;;;7.47;4.53;;;;;;;9.69;84.52;102591.55;1894400;75;21665;-78
2021/10/27 02:22:51;;;;;;;45.28;9.25;;;;;;;9.86;84.20;102584.54;1896310;75;21140;-77
2021/10/27 02:25:23;;;;;;;33.90;10.70;;;;;;;10.01;83.74;102587.14;1894374;75;21303;-78
2021/10/27 02:27:57;;;;;;;15.32;6.97;;;;;;;10.07;83.22;102585.81;1894891;75;21264;-77
2021/10/27 02:30:29;;;;;;;19.35;7.25;;;;;;;10.10;82.64;102576.22;1897199;75;21133;-77
2021/10/27 02:33:05;;;;;;;8.95;5.15;;;;;;;10.13;82.35;102581.33;1815777;78;21282;-78
2021/10/27 02:35:37;;;;;;;12.53;5.40;;;;;;;10.19;82.16;102585.52;1817023;78;21685;-77
2021/10/27 02:38:11;;;;;;;18.15;8.03;;;;;;;10.27;82.20;102589.47;1845224;76;21805;-78
2021/10/27 02:40:43;;;;;;;11.45;5.83;;;;;;;10.36;82.08;102581.27;1828042;76;21359;-81
2021/10/27 02:43:17;;;;;;;9.43;5.33;;;;;;;10.44;81.84;102586.60;1850260;77;21296;-75
2021/10/27 02:45:50;;;;;;;9.33;4.30;;;;;;;10.49;81.66;102592.37;1815388;78;21391;-74
2021/10/27 02:48:23;;;;;;;8.68;4.45;;;;;;;10.58;81.45;102591.63;1851541;77;21720;-74
2021/10/27 02:50:55;;;;;;;24.18;8.73;;;;;;;10.66;81.18;102590.02;1831217;77;21170;-82
2021/10/27 02:53:28;;;;;;;11.43;5.72;;;;;;;10.74;80.92;102606.45;1832267;78;21719;-81
2021/10/27 02:56:03;;;;;;;20.12;8.23;;;;;;;10.76;80.62;102599.63;1725500;83;21253;-75
2021/10/27 02:58:36;;;;;;;11.03;4.42;;;;;;;10.77;80.33;102594.38;1769252;81;21833;-76
2021/10/27 03:01:09;;;;;;;23.00;7.70;;;;;;;10.80;80.14;102593.97;1745582;82;21336;-77
2021/10/27 03:03:43;;;;;;;15.18;4.72;;;;;;;10.84;80.04;102586.92;1817142;79;21307;-75
2021/10/27 03:06:17;;;;;;;14.40;5.90;;;;;;;10.90;79.87;102592.13;1814748;79;21354;-76
2021/10/27 03:08:50;;;;;;;12.55;5.33;;;;;;;10.93;79.74;102582.83;1786133;79;21169;-76
2021/10/27 03:11:23;;;;;;;15.38;6.35;;;;;;;10.95;79.56;102578.45;1765444;79;21266;-80
2021/10/27 03:13:56;;;;;;;20.70;6.37;;;;;;;10.97;79.42;102585.50;1685945;82;21251;-79
2021/10/27 03:16:28;;;;;;;16.20;4.47;;;;;;;10.96;79.37;102578.21;1726332;80;22132;-81
2021/10/27 03:19:02;;;;;;;14.18;5.50;;;;;;;10.99;79.30;102583.34;1724365;81;21787;-81
2021/10/27 03:21:38;;;;;;;37.90;7.70;;;;;;;11.05;79.22;102590.83;1727505;82;21204;-81
2021/10/27 03:24:16;;;;;;;13.40;5.33;;;;;;;11.10;79.13;102588.77;1744142;80;21314;-80
2021/10/27 03:26:48;;;;;;;10.00;4.62;;;;;;;11.11;78.96;102586.31;1727619;82;22790;-75
2021/10/27 03:29:21;;;;;;;8.03;3.92;;;;;;;11.12;78.86;102586.66;1754867;81;21189;-73
2021/10/27 03:31:54;;;;;;;9.65;4.67;;;;;;;11.15;78.77;102577.34;1771502;80;21188;-75
2021/10/27 03:34:26;;;;;;;10.98;4.30;;;;;;;11.19;78.66;102581.38;1755047;80;21711;-77
2021/10/27 03:36:59;;;;;;;20.17;6.58;;;;;;;11.23;78.55;102579.00;1780608;80;21423;-77
2021/10/27 03:39:31;;;;;;;9.00;4.15;;;;;;;11.27;78.44;102582.55;1780829;80;21299;-76
2021/10/27 03:42:04;;;;;;;10.03;3.65;;;;;;;11.26;78.24;102583.59;1768086;80;21182;-75
2021/10/27 03:44:37;;;;;;;7.25;4.22;;;;;;;11.27;78.19;102589.50;1781156;79;21323;-74
2021/10/27 03:47:09;;;;;;;19.40;5.03;;;;;;;11.30;78.11;102580.70;1780890;80;21211;-73
2021/10/27 03:49:42;;;;;;;11.50;4.78;;;;;;;11.31;78.03;102583.80;1758177;79;21251;-72
2021/10/27 03:52:15;;;;;;;14.07;5.45;;;;;;;11.33;77.93;102580.28;1775881;80;21171;-74
2021/10/27 03:54:48;;;;;;;9.83;4.30;;;;;;;11.35;77.84;102580.91;1780825;79;21168;-73
2021/10/27 03:57:20;;;;;;;12.30;4.10;;;;;;;11.39;77.75;102589.66;1786477;76;21748;-81
2021/10/27 03:59:53;;;;;;;12.25;5.10;;;;;;;11.42;77.64;102584.52;1801396;78;21308;-81
2021/10/27 04:02:27;;;;;;;11.38;5.10;;;;;;;11.46;77.55;102580.75;1838641;78;21308;-81
2021/10/27 04:05:01;;;;;;;10.38;4.78;;;;;;;11.49;77.45;102576.98;1842384;77;21686;-80
2021/10/27 04:07:36;;;;;;;9.78;4.60;;;;;;;11.52;77.29;102577.95;1799728;78;21278;-80
2021/10/27 04:10:10;;;;;;;11.43;4.17;;;;;;;11.53;77.18;102576.88;1847155;75;21328;-81
2021/10/27 04:12:44;;;;;;;10.93;4.75;;;;;;;11.51;77.11;102579.03;1843647;77;21123;-80
2021/10/27 04:15:18;;;;;;;23.02;6.53;;;;;;;11.53;77.07;102582.44;1838365;78;21233;-80
2021/10/27 04:17:51;;;;;;;11.35;4.40;;;;;;;11.53;76.97;102574.62;1841321;77;21325;-79
2021/10/27 04:20:24;;;;;;;9.00;4.78;;;;;;;11.56;76.95;102581.15;1838182;78;21288;-78
2021/10/27 04:22:57;;;;;;;11.10;4.55;;;;;;;11.57;76.88;102574.50;1867914;75;21234;-81
2021/10/27 04:25:30;;;;;;;9.55;4.45;;;;;;;11.57;76.91;102573.11;1877111;74;21305;-80
2021/10/27 04:28:03;;;;;;;11.60;4.65;;;;;;;11.61;76.94;102568.30;1875916;75;21229;-75
2021/10/27 04:30:35;;;;;;;8.43;3.95;;;;;;;11.69;76.77;102572.21;1859723;75;21293;-72
2021/10/27 04:33:19;;;;;;;11.55;5.50;;;;;;;11.76;76.57;102570.28;1867193;75;21272;-86
2021/10/27 04:35:52;;;;;;;;;;;;;;;11.80;77.26;102566.52;1862609;75;21316;-73
2021/10/27 04:38:26;;;;;;;10.10;5.03;;;;;;;11.96;79.88;102565.97;1874653;75;20333;-74
2021/10/27 04:40:59;;;;;;;21.25;4.60;;;;;;;12.12;80.02;102557.95;1817110;77;21171;-72
2021/10/27 04:43:32;;;;;;;12.65;5.42;;;;;;;12.27;79.68;102559.00;1795922;79;21620;-72
2021/10/27 04:46:05;;;;;;;7.62;3.95;;;;;;;12.41;80.96;102567.59;1796040;78;21372;-78
2021/10/27 04:48:41;;;;;;;37.13;8.70;;;;;;;12.52;78.68;102567.70;1783243;78;21862;-74
2021/10/27 04:51:14;;;;;;;18.77;6.80;;;;;;;12.55;78.42;102565.87;1792925;78;21192;-75
2021/10/27 04:53:47;;;;;;;13.43;5.53;;;;;;;12.59;77.72;102572.67;1777131;78;21239;-74
2021/10/27 04:56:20;;;;;;;22.43;9.17;;;;;;;12.59;76.36;102576.85;1807046;78;21764;-77
2021/10/27 04:58:52;;;;;;;16.42;6.70;;;;;;;12.61;78.11;102577.50;1830254;77;21419;-84
2021/10/27 05:01:25;;;;;;;15.60;7.03;;;;;;;12.76;79.01;102584.09;1806115;79;21269;-74
2021/10/27 05:03:58;;;;;;;25.75;8.95;;;;;;;12.81;77.59;102584.27;1862673;76;21371;-75
2021/10/27 05:06:31;;;;;;;12.40;5.97;;;;;;;12.86;78.75;102583.91;1828695;77;21335;-82
2021/10/27 05:09:04;;;;;;;25.45;5.35;;;;;;;12.98;77.84;102589.61;1905105;74;21202;-74
2021/10/27 05:11:37;;;;;;;20.32;6.53;;;;;;;12.95;76.69;102590.92;1882043;74;21351;-74
2021/10/27 05:14:11;;;;;;;27.85;7.17;;;;;;;12.91;76.22;102592.41;1885724;76;21375;-74
2021/10/27 05:16:44;;;;;;;12.73;5.85;;;;;;;12.90;75.86;102599.08;1879957;74;21142;-76
2021/10/27 05:19:16;;;;;;;15.60;6.37;;;;;;;12.86;74.89;102597.85;1846690;77;21799;-72
2021/10/27 05:21:49;;;;;;;13.80;5.45;;;;;;;12.85;74.79;102597.52;1813826;79;21320;-74
2021/10/27 05:24:21;;;;;;;17.42;5.75;;;;;;;12.85;75.03;102600.86;1846673;77;21260;-73
2021/10/27 05:26:54;;;;;;;11.95;4.42;;;;;;;12.81;75.12;102606.05;1830550;76;21211;-84
2021/10/27 05:29:27;;;;;;;10.00;4.60;;;;;;;12.87;75.42;102604.27;1815691;76;21301;-72
2021/10/27 05:31:59;;;;;;;13.23;5.13;;;;;;;12.89;75.82;102607.13;1822456;78;21226;-72
2021/10/27 05:34:32;;;;;;;9.38;5.55;;;;;;;12.90;74.84;102613.58;1898696;74;21162;-75
2021/10/27 05:37:05;;;;;;;15.83;5.40;;;;;;;12.86;74.64;102615.97;1830949;77;21833;-76
2021/10/27 05:39:37;;;;;;;15.90;5.90;;;;;;;12.87;75.17;102616.80;1885804;74;21422;-83
2021/10/27 05:42:15;;;;;;;19.45;7.15;;;;;;;12.91;75.20;102620.30;1816832;77;21387;-74
2021/10/27 05:44:47;;;;;;;14.93;6.00;;;;;;;12.94;74.07;102630.14;1825616;77;21961;-76
2021/10/27 05:47:18;;;;;;;16.37;6.28;;;;;;;12.96;73.82;102630.83;1822975;77;21314;-71
2021/10/27 05:50:08;;;;;;;21.05;7.03;;;;;;;12.95;73.40;102628.56;1835251;76;21798;-85
2021/10/27 05:57:45;;;;;;;18.67;5.97;;;;;;;12.97;72.80;102627.78;1758328;79;21357;-72
2021/10/27 06:00:18;;;;;;;16.30;6.10;;;;;;;13.03;73.31;102631.05;1795513;78;21286;-75
2021/10/27 06:02:50;;;;;;;13.18;7.10;;;;;;;13.07;72.83;102637.89;1793732;78;21324;-79
2021/10/27 06:05:23;;;;;;;20.08;7.08;;;;;;;13.11;72.53;102633.56;1850049;76;21341;-78
2021/10/27 06:07:56;;;;;;;15.72;6.20;;;;;;;13.21;72.38;102631.09;1817221;77;21696;-73
2021/10/27 06:10:30;;;;;;;15.60;6.03;;;;;;;13.25;71.84;102639.31;1839878;76;21305;-70
2021/10/27 06:13:06;;;;;;;13.75;4.92;;;;;;;13.27;71.58;102641.88;1873980;75;21182;-72
2021/10/27 06:15:41;;;;;;;12.45;5.97;;;;;;;13.27;71.28;102647.47;1910802;75;21753;-71
2021/10/27 06:18:15;;;;;;;11.03;5.97;;;;;;;13.30;71.22;102644.20;1868362;75;21187;-72
2021/10/27 06:20:48;;;;;;;13.95;6.30;;;;;;;13.27;71.14;102642.72;1828681;78;21178;-73
2021/10/27 06:23:23;;;;;;;24.77;7.70;;;;;;;13.21;71.81;102638.06;1793568;78;21783;-75
2021/10/27 06:25:57;;;;;;;16.80;5.50;;;;;;;13.22;72.10;102638.40;1819593;77;21226;-73
2021/10/27 06:28:34;;;;;;;15.35;5.55;;;;;;;13.20;71.42;102641.94;1794049;78;21177;-74
2021/10/27 06:31:12;;;;;;;16.85;6.03;;;;;;;13.15;70.94;102645.12;1843268;75;21372;-81
2021/10/27 06:36:34;;;;;;;20.15;6.12;;;;;;;13.11;70.90;102646.64;1813694;77;21293;-77
2021/10/27 06:39:29;;;;;;;13.45;6.62;;;;;;;13.13;70.73;102651.44;1835774;77;21309;-79
2021/10/27 06:47:36;;;;;;;14.87;5.20;;;;;;;13.04;70.64;102653.70;1796289;80;21206;-77
2021/10/27 06:50:09;;;;;;;15.25;6.65;;;;;;;13.01;70.76;102645.77;1766404;81;21676;-80
2021/10/27 06:52:43;;;;;;;11.20;5.25;;;;;;;12.99;70.82;102647.95;1836254;78;21814;-81
2021/10/27 06:55:18;;;;;;;11.08;4.78;;;;;;;12.98;70.84;102649.56;1835824;78;21802;-80
2021/10/27 06:57:52;;;;;;;13.70;6.10;;;;;;;12.94;70.82;102644.95;1835969;77;21687;-80
2021/10/27 07:00:39;;;;;;;8.63;4.95;;;;;;;12.92;70.88;102652.70;1848753;77;21154;-80
2021/10/27 07:06:08;;;;;;;12.20;5.37;;;;;;;12.91;70.79;102659.33;1854186;77;21331;-79
2021/10/27 07:17:33;;;;;;;10.40;5.33;;;;;;;12.91;70.78;102646.78;1789919;79;21379;-80
2021/10/27 07:20:09;;;;;;;13.30;5.60;;;;;;;12.92;70.73;102640.16;1821107;79;21327;-78
2021/10/27 07:22:41;;;;;;;12.70;6.20;;;;;;;12.93;70.72;102636.80;1832669;77;21291;-80
2021/10/27 07:25:16;;;;;;;18.48;5.50;;;;;;;12.93;70.75;102639.06;1859072;77;21245;-80
2021/10/27 07:27:51;;;;;;;12.23;5.10;;;;;;;12.95;70.56;102636.92;1833914;77;21328;-79
2021/10/27 07:30:24;;;;;;;11.93;5.35;;;;;;;12.97;70.07;102633.36;1856829;76;21295;-78
2021/10/27 07:32:58;;;;;;;18.00;6.45;;;;;;;12.97;70.01;102633.36;1856677;77;21181;-78
2021/10/27 07:35:53;;;;;;;15.23;5.97;;;;;;;12.97;70.01;102633.36;1858209;77;21252;-80
2021/10/27 07:41:15;;;;;;;16.35;6.47;;;;;;;13.03;70.14;102627.42;1859422;77;21141;-79
2021/10/27 07:43:51;;;;;;;18.73;6.62;;;;;;;13.08;70.04;102624.25;1858970;77;21188;-76
2021/10/27 07:46:23;;;;;;;10.72;5.40;;;;;;;13.13;69.76;102627.73;1859050;76;21217;-78
2021/10/27 07:48:59;;;;;;;10.35;5.37;;;;;;;13.21;68.96;102615.74;1832823;77;21185;-76
2021/10/27 07:51:32;;;;;;;14.25;5.62;;;;;;;13.21;68.96;102615.74;1859498;77;21173;-78
2021/10/27 07:54:06;;;;;;;11.45;5.12;;;;;;;13.28;68.32;102612.89;1859803;77;21138;-79
2021/10/27 07:56:39;;;;;;;12.03;4.80;;;;;;;13.30;67.27;102606.00;1859689;77;21248;-80
2021/10/27 07:59:12;;;;;;;;;;;;;;;13.32;66.26;102603.83;1862412;77;21244;-77
2021/10/27 08:01:44;;;;;;;14.55;6.72;;;;;;;13.37;65.86;102610.97;1821230;78;20247;-78
2021/10/27 08:04:17;;;;;;;15.43;6.80;;;;;;;13.40;64.97;102606.33;1840758;78;21210;-78
2021/10/27 08:06:49;;;;;;;13.43;7.10;;;;;;;13.43;64.15;102607.24;1841293;78;21309;-77
2021/10/27 08:09:29;;;;;;;16.77;6.35;;;;;;;13.49;63.95;102606.31;1840964;78;21293;-79
2021/10/27 08:12:10;;;;;;;21.10;5.25;;;;;;;13.57;63.40;102602.38;1841130;78;21170;-76
2021/10/27 08:14:44;;;;;;;8.60;4.05;;;;;;;13.60;62.67;102601.89;1841106;78;21222;-79
2021/10/27 08:17:21;;;;;;;9.08;3.80;;;;;;;13.61;62.05;102596.08;1838074;78;21143;-79
2021/10/27 08:19:55;;;;;;;11.85;4.12;;;;;;;13.62;61.74;102586.61;1840861;78;21572;-82
2021/10/27 08:22:28;;;;;;;12.37;4.70;;;;;;;13.64;61.61;102590.01;1836988;78;21304;-80
2021/10/27 08:25:17;;;;;;;7.33;4.90;;;;;;;13.68;61.32;102591.26;1836353;78;21275;-80
2021/10/27 08:27:38;;;;;;;16.02;4.47;;;;;;;13.74;60.78;102586.13;1833603;78;21369;-81
2021/10/27 08:30:13;;;;;;;14.70;5.55;;;;;;;13.79;60.37;102591.88;1836255;78;21167;-80
2021/10/27 08:32:51;;;;;;;17.52;5.33;;;;;;;13.86;59.87;102592.63;1835988;77;21826;-79
2021/10/27 08:35:28;;;;;;;13.68;6.03;;;;;;;13.90;59.48;102591.61;1836011;78;21305;-79
2021/10/27 08:37:57;;;;;;;10.43;3.98;;;;;;;13.97;58.91;102594.62;1836485;77;21696;-78
2021/10/27 08:40:51;;;;;;;14.38;3.70;;;;;;;14.06;57.57;102585.38;1837097;77;21799;-80
2021/10/27 08:43:26;;;;;;;9.65;4.53;;;;;;;14.06;57.57;102585.38;1835776;78;21308;-80
2021/10/27 08:46:01;;;;;;;6.80;3.90;;;;;;;14.10;57.07;102592.17;1835886;77;21241;-79
2021/10/27 08:48:48;;;;;;;4.08;3.08;;;;;;;14.10;57.07;102592.17;1835821;78;21266;-79
2021/10/27 08:51:24;;;;;;;12.63;5.62;;;;;;;14.11;56.53;102585.53;1806802;78;21177;-79
2021/10/27 08:53:58;;;;;;;14.80;5.42;;;;;;;14.14;56.14;102591.48;1814071;78;21213;-81
2021/10/27 08:56:30;;;;;;;15.68;4.40;;;;;;;14.14;56.14;102591.48;1836364;78;21435;-80
2021/10/27 08:59:17;;;;;;;11.15;4.37;;;;;;;14.17;55.81;102592.39;1823380;77;21328;-77
2021/10/27 09:07:31;;;;;;;13.20;5.80;;;;;;;14.26;55.49;102585.43;1833364;78;21316;-75
2021/10/27 09:10:19;;;;;;;15.85;5.70;;;;;;;14.26;55.34;102581.77;1834037;78;21364;-77
2021/10/27 09:44:43;;;;;;;33.53;7.00;;;;;;;14.24;54.56;102572.22;1834536;78;21304;-80
2021/10/27 09:55:54;;;;;;;9.50;3.60;;;;;;;14.22;54.50;102563.77;1829299;78;21278;-78
2021/10/27 10:06:52;;;;;;;18.55;3.22;;;;;;;14.33;54.33;102559.63;1839431;77;21355;-80
2021/10/27 10:09:25;;;;;;;8.95;4.15;;;;;;;14.33;54.26;102563.81;1839487;77;21324;-82
2021/10/27 10:12:00;;;;;;;19.23;4.62;;;;;;;14.38;54.57;102551.91;1799954;80;21182;-81
2021/10/27 10:14:35;;;;;;;23.50;4.47;;;;;;;14.36;54.31;102540.96;1800214;80;21384;-81
2021/10/27 10:17:09;;;;;;;12.07;4.17;;;;;;;14.36;54.31;102540.96;1799805;79;21368;-80
2021/10/27 10:19:42;;;;;;;9.38;3.58;;;;;;;14.40;54.12;102554.77;1800048;79;21858;-78
2021/10/27 10:25:32;;;;;;;14.05;5.35;;;;;;;14.42;54.09;102545.59;1800000;80;21384;-80
2021/10/27 10:28:21;;;;;;;12.07;5.83;;;;;;;14.45;54.08;102540.93;1800009;80;21158;-80
2021/10/27 10:31:00;;;;;;;9.93;4.05;;;;;;;14.50;53.89;102540.20;1799830;79;21359;-83
2021/10/27 10:33:48;;;;;;;11.73;5.40;;;;;;;14.51;53.69;102538.58;1800025;80;21371;-81
2021/10/27 10:36:35;;;;;;;11.43;4.78;;;;;;;14.52;53.72;102537.47;1799911;80;21305;-78
2021/10/27 10:41:52;;;;;;;12.23;5.40;;;;;;;14.53;53.63;102526.59;1797034;79;21372;-78
2021/10/27 10:44:55;;;;;;;11.97;4.20;;;;;;;14.54;53.94;102523.27;1800248;79;21170;-80
2021/10/27 10:59:06;;;;;;;;;;;;;;;14.61;53.28;102508.05;1780384;81;21239;-79
2021/10/27 11:25:08;;;;;;;14.60;4.00;;;;;;;14.85;52.97;102476.19;1792054;80;21341;-78
2021/10/27 11:45:17;;;;;;;14.55;4.42;;;;;;;15.03;51.91;102471.84;1791907;80;21179;-80
2021/10/27 11:47:54;;;;;;;12.25;4.03;;;;;;;15.03;51.88;102468.22;1837241;76;21186;-81
2021/10/27 11:50:24;;;;;;;7.55;4.20;;;;;;;15.05;52.21;102456.22;1870300;76;21287;-81
2021/10/27 11:52:57;;;;;;;7.22;4.30;;;;;;;15.08;51.92;102455.17;1843331;76;21375;-80
2021/10/27 11:55:32;;;;;;;12.25;4.05;;;;;;;15.07;51.81;102451.22;1872957;76;21308;-81
2021/10/27 11:58:07;;;;;;;11.60;5.50;;;;;;;15.09;51.72;102446.23;1873032;76;21367;-81
2021/10/27 12:00:45;;;;;;;19.80;9.68;;;;;;;15.09;52.07;102451.84;1873027;76;21742;-81
2021/10/27 12:03:27;;;;;;;9.03;4.92;;;;;;;15.10;51.92;102456.33;1873207;76;21297;-80
2021/10/27 12:06:00;;;;;;;7.40;4.42;;;;;;;15.13;51.85;102458.08;1869852;76;21305;-80
2021/10/27 12:14:11;;;;;;;16.10;6.78;;;;;;;15.15;51.74;102456.45;1850370;76;21347;-79
2021/10/27 12:19:32;;;;;;;11.25;5.50;;;;;;;15.18;53.08;102465.20;1878580;76;21194;-81
2021/10/27 12:22:09;;;;;;;15.70;5.78;;;;;;;15.18;54.49;102459.59;1878614;75;21178;-79
2021/10/27 12:24:43;;;;;;;14.95;4.58;;;;;;;15.18;56.50;102450.34;1878401;74;21471;-78
2021/10/27 12:27:46;;;;;;;10.70;5.72;;;;;;;15.13;57.76;102451.63;1877977;76;21205;-82
2021/10/27 12:30:00;;;;;;;14.58;6.70;;;;;;;15.01;58.71;102450.27;1868864;76;21423;-80
2021/10/27 12:32:34;;;;;;;12.28;5.45;;;;;;;14.85;59.98;102447.38;1850789;76;21262;-81
2021/10/27 12:35:16;;;;;;;10.83;6.07;;;;;;;14.75;60.44;102441.55;1873736;76;21305;-79
2021/10/27 12:37:51;;;;;;;11.68;5.20;;;;;;;14.69;60.81;102444.80;1872994;76;21322;-79
2021/10/27 12:40:41;;;;;;;12.45;6.12;;;;;;;14.61;61.01;102433.95;1849189;76;21313;-80
2021/10/27 12:43:15;;;;;;;10.80;5.15;;;;;;;14.54;61.54;102438.00;1873232;76;21151;-80
2021/10/27 12:45:51;;;;;;;38.90;7.75;;;;;;;14.44;62.08;102444.20;1873131;76;21174;-82
2021/10/27 12:48:38;;;;;;;9.85;4.87;;;;;;;14.33;62.68;102446.44;1872827;76;21308;-84
2021/10/27 12:51:21;;;;;;;40.80;6.22;;;;;;;14.25;63.10;102445.38;1873178;76;21312;-83
2021/10/27 12:53:58;;;;;;;19.60;5.25;;;;;;;14.07;64.74;102447.40;1870145;76;21797;-80
2021/10/27 12:56:34;;;;;;;11.28;6.03;;;;;;;14.07;64.74;102471.14;1867367;76;21794;-78
2021/10/27 12:59:12;;;;;;;9.25;5.75;;;;;;;13.96;65.63;102453.28;1872940;76;21344;-79
2021/10/27 13:01:48;;;;;;;13.32;5.47;;;;;;;13.83;66.09;102453.49;1873061;76;21305;-79
2021/10/27 13:14:40;;;;;;;10.75;6.08;;;;;;;13.51;67.76;102438.63;1872929;76;21304;-81
2021/10/27 13:17:33;;;;;;;23.02;7.10;;;;;;;13.51;67.76;102438.63;1869858;76;21190;-79
2021/10/27 13:31:12;;;;;;;10.60;5.80;;;;;;;13.50;68.41;102443.34;1872823;76;21289;-82
2021/10/27 13:33:42;;;;;;;29.92;6.62;;;;;;;13.43;68.81;102439.80;1872943;76;21375;-82
2021/10/27 13:36:18;;;;;;;13.00;5.03;;;;;;;13.40;69.02;102450.06;1873093;76;21680;-80
2021/10/27 13:38:52;;;;;;;;;;;;;;;13.43;69.15;102452.36;1875967;76;21163;-78
2021/10/27 13:41:27;;;;;;;11.12;5.20;;;;;;;13.39;69.36;102439.95;1875521;76;20241;-82
2021/10/27 13:44:16;;;;;;;10.53;5.45;;;;;;;13.32;69.80;102437.81;1873834;76;21170;-81
2021/10/27 13:47:02;;;;;;;13.70;6.25;;;;;;;13.24;70.09;102442.33;1873347;76;21225;-80
2021/10/27 13:49:48;;;;;;;11.97;5.08;;;;;;;13.20;70.48;102448.62;1870074;76;21755;-78
2021/10/27 14:06:15;;;;;;;14.33;6.42;;;;;;;13.02;71.38;102450.87;1873887;76;21340;-77
2021/10/27 14:09:00;;;;;;;14.58;6.00;;;;;;;13.02;71.49;102444.45;1872899;76;21327;-80
2021/10/27 14:11:35;;;;;;;9.98;5.85;;;;;;;13.00;71.68;102447.47;1873492;76;22976;-80
2021/10/27 15:22:05;;;;;;;23.40;11.40;;;;;;;12.55;74.11;102468.34;1888318;76;21228;-86
2021/10/27 15:41:58;;;;;;;40.33;22.35;;;;;;;12.61;74.18;102499.98;1856675;76;21162;-85
2021/10/27 15:50:36;;;;;;;15.78;8.48;;;;;;;12.61;74.06;102506.43;1852775;77;21316;-82
2021/10/27 15:53:10;;;;;;;27.58;10.50;;;;;;;12.62;74.12;102502.56;1857607;75;21319;-82
2021/10/27 15:55:42;;;;;;;26.00;10.80;;;;;;;12.62;74.17;102501.16;1849925;77;21340;-84
2021/10/27 15:58:27;;;;;;;21.90;9.93;;;;;;;12.63;74.20;102500.60;1859131;76;21308;-85
2021/10/27 16:01:00;;;;;;;20.60;10.05;;;;;;;12.61;74.17;102509.22;1857366;76;21304;-77
2021/10/27 16:03:35;;;;;;;22.00;9.38;;;;;;;12.59;74.18;102511.36;1861884;76;21304;-80
2021/10/27 16:06:08;;;;;;;21.80;9.23;;;;;;;12.62;74.28;102511.45;1857420;77;21312;-84
2021/10/27 16:08:55;;;;;;;18.12;10.55;;;;;;;12.64;74.16;102508.74;1857802;77;21794;-80
2021/10/27 16:11:35;;;;;;;22.82;10.38;;;;;;;12.60;74.09;102507.48;1856587;77;21304;-83
2021/10/27 16:14:14;;;;;;;14.98;9.63;;;;;;;12.57;74.13;102501.52;1857564;77;21375;-80
2021/10/27 16:16:48;;;;;;;23.98;10.30;;;;;;;12.56;74.21;102517.94;1857521;77;21221;-83
2021/10/27 16:19:23;;;;;;;22.13;8.40;;;;;;;12.55;74.16;102514.31;1851964;77;21146;-82
2021/10/27 16:22:00;;;;;;;15.18;7.97;;;;;;;12.58;74.07;102520.81;1853395;77;21347;-81
2021/10/27 16:24:33;;;;;;;20.90;9.85;;;;;;;12.59;73.93;102525.30;1857578;76;21304;-82
2021/10/27 16:27:06;;;;;;;21.33;10.25;;;;;;;12.57;73.87;102524.68;1857852;77;21340;-83
2021/10/27 16:29:48;;;;;;;28.38;11.38;;;;;;;12.58;73.86;102524.13;1857800;77;21315;-81
2021/10/27 16:32:21;;;;;;;18.45;10.35;;;;;;;12.56;73.80;102534.13;1857733;77;21181;-83